sensor_id;sensor_type;location;lat;lon;timestamp;temperature;humidity
39931;DHT22;26635;-35.248;149.138;2024-02-28T00:00:46;26.10;72.50
39931;DHT22;26635;-35.248;149.138;2024-02-28T00:03:18;26.30;72.30
39931;DHT22;26635;-35.248;149.138;2024-02-28T00:05:48;26.20;71.30
39931;DHT22;26635;-35.248;149.138;2024-02-28T00:08:24;26.30;70.80
39931;DHT22;26635;-35.248;149.138;2024-02-28T00:10:55;26.40;71.40
39931;DHT22;26635;-35.248;149.138;2024-02-28T00:13:26;26.30;70.80
39931;DHT22;26635;-35.248;149.138;2024-02-28T00:15:57;26.30;70.40
39931;DHT22;26635;-35.248;149.138;2024-02-28T00:18:28;26.40;69.40
39931;DHT22;26635;-35.248;149.138;2024-02-28T00:21:01;26.40;70.00
39931;DHT22;26635;-35.248;149.138;2024-02-28T00:23:31;26.50;70.20
39931;DHT22;26635;-35.248;149.138;2024-02-28T00:26:03;26.60;70.10
39931;DHT22;26635;-35.248;149.138;2024-02-28T00:28:34;26.60;68.50
39931;DHT22;26635;-35.248;149.138;2024-02-28T00:31:04;26.60;69.60
39931;DHT22;26635;-35.248;149.138;2024-02-28T00:33:35;26.70;69.50
39931;DHT22;26635;-35.248;149.138;2024-02-28T00:36:05;26.80;69.50
39931;DHT22;26635;-35.248;149.138;2024-02-28T00:38:36;26.90;69.20
39931;DHT22;26635;-35.248;149.138;2024-02-28T00:41:08;27.20;67.70
39931;DHT22;26635;-35.248;149.138;2024-02-28T00:43:38;27.30;67.60
39931;DHT22;26635;-35.248;149.138;2024-02-28T00:46:08;27.40;68.20
39931;DHT22;26635;-35.248;149.138;2024-02-28T00:48:41;27.60;66.90
39931;DHT22;26635;-35.248;149.138;2024-02-28T00:51:12;27.70;67.00
39931;DHT22;26635;-35.248;149.138;2024-02-28T00:53:45;27.90;66.40
39931;DHT22;26635;-35.248;149.138;2024-02-28T00:56:16;27.80;64.60
39931;DHT22;26635;-35.248;149.138;2024-02-28T00:58:47;27.90;65.70
39931;DHT22;26635;-35.248;149.138;2024-02-28T01:01:17;28.00;66.80
39931;DHT22;26635;-35.248;149.138;2024-02-28T01:03:48;28.20;65.50
39931;DHT22;26635;-35.248;149.138;2024-02-28T01:06:19;28.30;65.30
39931;DHT22;26635;-35.248;149.138;2024-02-28T01:08:49;28.30;66.20
39931;DHT22;26635;-35.248;149.138;2024-02-28T01:11:20;28.40;66.30
39931;DHT22;26635;-35.248;149.138;2024-02-28T01:13:50;28.60;65.70
39931;DHT22;26635;-35.248;149.138;2024-02-28T01:16:20;28.70;65.50
39931;DHT22;26635;-35.248;149.138;2024-02-28T01:18:51;28.90;64.60
39931;DHT22;26635;-35.248;149.138;2024-02-28T01:21:22;28.90;64.40
39931;DHT22;26635;-35.248;149.138;2024-02-28T01:23:53;29.00;64.20
39931;DHT22;26635;-35.248;149.138;2024-02-28T01:26:24;29.10;65.50
39931;DHT22;26635;-35.248;149.138;2024-02-28T01:28:54;29.20;64.40
39931;DHT22;26635;-35.248;149.138;2024-02-28T01:31:25;29.20;62.90
39931;DHT22;26635;-35.248;149.138;2024-02-28T01:33:55;29.20;63.80
39931;DHT22;26635;-35.248;149.138;2024-02-28T01:36:26;29.30;64.30
39931;DHT22;26635;-35.248;149.138;2024-02-28T01:38:57;29.30;63.80
39931;DHT22;26635;-35.248;149.138;2024-02-28T01:41:27;29.40;64.30
39931;DHT22;26635;-35.248;149.138;2024-02-28T01:43:58;29.50;63.80
39931;DHT22;26635;-35.248;149.138;2024-02-28T01:46:29;29.60;64.10
39931;DHT22;26635;-35.248;149.138;2024-02-28T01:49:01;29.70;64.40
39931;DHT22;26635;-35.248;149.138;2024-02-28T01:51:32;29.80;64.50
39931;DHT22;26635;-35.248;149.138;2024-02-28T01:54:03;30.00;64.50
39931;DHT22;26635;-35.248;149.138;2024-02-28T01:56:34;30.10;63.70
39931;DHT22;26635;-35.248;149.138;2024-02-28T01:59:05;30.20;63.30
39931;DHT22;26635;-35.248;149.138;2024-02-28T02:01:37;30.20;62.30
39931;DHT22;26635;-35.248;149.138;2024-02-28T02:04:07;30.30;62.40
39931;DHT22;26635;-35.248;149.138;2024-02-28T02:06:41;30.40;62.90
39931;DHT22;26635;-35.248;149.138;2024-02-28T02:09:12;30.60;62.70
39931;DHT22;26635;-35.248;149.138;2024-02-28T02:11:43;30.70;62.10
39931;DHT22;26635;-35.248;149.138;2024-02-28T02:14:14;30.90;61.40
39931;DHT22;26635;-35.248;149.138;2024-02-28T02:16:44;30.90;60.70
39931;DHT22;26635;-35.248;149.138;2024-02-28T02:19:15;31.00;60.50
39931;DHT22;26635;-35.248;149.138;2024-02-28T02:21:51;31.10;61.00
39931;DHT22;26635;-35.248;149.138;2024-02-28T02:24:23;31.10;60.30
39931;DHT22;26635;-35.248;149.138;2024-02-28T02:27:01;31.20;60.00
39931;DHT22;26635;-35.248;149.138;2024-02-28T02:29:36;31.30;59.20
39931;DHT22;26635;-35.248;149.138;2024-02-28T02:32:08;31.30;60.00
39931;DHT22;26635;-35.248;149.138;2024-02-28T02:34:39;31.20;59.90
39931;DHT22;26635;-35.248;149.138;2024-02-28T02:37:10;31.20;60.30
39931;DHT22;26635;-35.248;149.138;2024-02-28T02:39:41;31.20;61.00
39931;DHT22;26635;-35.248;149.138;2024-02-28T02:42:12;31.30;60.10
39931;DHT22;26635;-35.248;149.138;2024-02-28T02:44:44;31.40;59.00
39931;DHT22;26635;-35.248;149.138;2024-02-28T02:47:14;31.40;60.30
39931;DHT22;26635;-35.248;149.138;2024-02-28T02:49:47;31.40;60.70
39931;DHT22;26635;-35.248;149.138;2024-02-28T02:52:18;31.40;58.50
39931;DHT22;26635;-35.248;149.138;2024-02-28T02:54:48;31.30;59.20
39931;DHT22;26635;-35.248;149.138;2024-02-28T02:57:19;31.30;60.30
39931;DHT22;26635;-35.248;149.138;2024-02-28T02:59:50;31.30;60.10
39931;DHT22;26635;-35.248;149.138;2024-02-28T03:02:20;31.40;59.30
39931;DHT22;26635;-35.248;149.138;2024-02-28T03:04:51;31.60;59.20
39931;DHT22;26635;-35.248;149.138;2024-02-28T03:07:21;31.60;58.60
39931;DHT22;26635;-35.248;149.138;2024-02-28T03:09:52;31.70;58.80
39931;DHT22;26635;-35.248;149.138;2024-02-28T03:12:23;31.80;58.60
39931;DHT22;26635;-35.248;149.138;2024-02-28T03:14:53;32.00;58.90
39931;DHT22;26635;-35.248;149.138;2024-02-28T03:17:24;32.00;57.60
39931;DHT22;26635;-35.248;149.138;2024-02-28T03:19:54;32.10;57.00
39931;DHT22;26635;-35.248;149.138;2024-02-28T03:22:24;32.10;57.70
39931;DHT22;26635;-35.248;149.138;2024-02-28T03:24:55;32.10;57.00
39931;DHT22;26635;-35.248;149.138;2024-02-28T03:27:25;32.10;57.70
39931;DHT22;26635;-35.248;149.138;2024-02-28T03:29:57;32.10;58.70
39931;DHT22;26635;-35.248;149.138;2024-02-28T03:32:33;32.10;58.20
39931;DHT22;26635;-35.248;149.138;2024-02-28T03:35:04;32.10;58.10
39931;DHT22;26635;-35.248;149.138;2024-02-28T03:37:38;32.10;57.70
39931;DHT22;26635;-35.248;149.138;2024-02-28T03:40:08;32.00;58.20
39931;DHT22;26635;-35.248;149.138;2024-02-28T03:42:39;32.00;57.60
39931;DHT22;26635;-35.248;149.138;2024-02-28T03:45:10;32.00;57.80
39931;DHT22;26635;-35.248;149.138;2024-02-28T03:47:40;32.00;58.40
39931;DHT22;26635;-35.248;149.138;2024-02-28T03:50:11;32.00;58.40
39931;DHT22;26635;-35.248;149.138;2024-02-28T03:52:41;31.90;57.20
39931;DHT22;26635;-35.248;149.138;2024-02-28T03:55:12;32.00;58.50
39931;DHT22;26635;-35.248;149.138;2024-02-28T03:57:46;32.00;57.80
39931;DHT22;26635;-35.248;149.138;2024-02-28T04:00:17;32.00;58.30
39931;DHT22;26635;-35.248;149.138;2024-02-28T04:02:50;32.10;58.60
39931;DHT22;26635;-35.248;149.138;2024-02-28T04:05:22;32.00;57.60
39931;DHT22;26635;-35.248;149.138;2024-02-28T04:07:52;32.00;57.40
39931;DHT22;26635;-35.248;149.138;2024-02-28T04:10:23;32.10;56.40
39931;DHT22;26635;-35.248;149.138;2024-02-28T04:12:53;32.10;57.90
39931;DHT22;26635;-35.248;149.138;2024-02-28T04:15:24;32.10;56.80
39931;DHT22;26635;-35.248;149.138;2024-02-28T04:17:55;32.10;56.70
39931;DHT22;26635;-35.248;149.138;2024-02-28T04:20:26;32.20;57.20
39931;DHT22;26635;-35.248;149.138;2024-02-28T04:22:56;32.20;58.50
39931;DHT22;26635;-35.248;149.138;2024-02-28T04:25:26;32.20;57.00
39931;DHT22;26635;-35.248;149.138;2024-02-28T04:27:57;32.20;57.00
39931;DHT22;26635;-35.248;149.138;2024-02-28T04:30:28;32.10;56.80
39931;DHT22;26635;-35.248;149.138;2024-02-28T04:32:59;32.10;56.80
39931;DHT22;26635;-35.248;149.138;2024-02-28T04:35:29;32.10;56.10
39931;DHT22;26635;-35.248;149.138;2024-02-28T04:38:00;32.00;56.80
39931;DHT22;26635;-35.248;149.138;2024-02-28T04:40:31;31.80;56.30
39931;DHT22;26635;-35.248;149.138;2024-02-28T04:43:01;31.80;56.50
39931;DHT22;26635;-35.248;149.138;2024-02-28T04:45:32;31.70;56.20
39931;DHT22;26635;-35.248;149.138;2024-02-28T04:48:02;31.80;56.10
39931;DHT22;26635;-35.248;149.138;2024-02-28T04:50:33;31.70;56.00
39931;DHT22;26635;-35.248;149.138;2024-02-28T04:53:04;31.60;56.40
39931;DHT22;26635;-35.248;149.138;2024-02-28T04:55:35;31.40;57.60
39931;DHT22;26635;-35.248;149.138;2024-02-28T04:58:05;31.40;56.80
39931;DHT22;26635;-35.248;149.138;2024-02-28T05:00:36;31.40;56.80
39931;DHT22;26635;-35.248;149.138;2024-02-28T05:03:06;31.30;56.60
39931;DHT22;26635;-35.248;149.138;2024-02-28T05:05:36;31.30;56.30
39931;DHT22;26635;-35.248;149.138;2024-02-28T05:08:07;31.40;56.70
39931;DHT22;26635;-35.248;149.138;2024-02-28T05:10:38;31.50;56.20
39931;DHT22;26635;-35.248;149.138;2024-02-28T05:13:09;31.60;55.50
39931;DHT22;26635;-35.248;149.138;2024-02-28T05:15:40;31.70;55.90
39931;DHT22;26635;-35.248;149.138;2024-02-28T05:18:10;31.70;55.20
39931;DHT22;26635;-35.248;149.138;2024-02-28T05:20:41;31.80;54.70
39931;DHT22;26635;-35.248;149.138;2024-02-28T05:23:11;31.80;54.70
39931;DHT22;26635;-35.248;149.138;2024-02-28T05:25:41;31.80;54.70
39931;DHT22;26635;-35.248;149.138;2024-02-28T05:28:12;31.80;54.60
39931;DHT22;26635;-35.248;149.138;2024-02-28T05:30:42;31.70;54.70
39931;DHT22;26635;-35.248;149.138;2024-02-28T05:33:17;31.60;55.20
39931;DHT22;26635;-35.248;149.138;2024-02-28T05:35:51;31.60;54.60
39931;DHT22;26635;-35.248;149.138;2024-02-28T05:38:27;31.70;54.40
39931;DHT22;26635;-35.248;149.138;2024-02-28T05:40:57;31.70;54.70
39931;DHT22;26635;-35.248;149.138;2024-02-28T05:43:29;31.70;54.50
39931;DHT22;26635;-35.248;149.138;2024-02-28T05:46:00;31.80;55.20
39931;DHT22;26635;-35.248;149.138;2024-02-28T05:48:30;31.80;54.70
39931;DHT22;26635;-35.248;149.138;2024-02-28T05:51:04;31.90;54.20
39931;DHT22;26635;-35.248;149.138;2024-02-28T05:53:34;31.90;55.60
39931;DHT22;26635;-35.248;149.138;2024-02-28T05:56:09;31.80;55.40
39931;DHT22;26635;-35.248;149.138;2024-02-28T05:58:49;31.80;54.90
39931;DHT22;26635;-35.248;149.138;2024-02-28T06:01:19;31.70;55.70
39931;DHT22;26635;-35.248;149.138;2024-02-28T06:03:50;31.60;54.70
39931;DHT22;26635;-35.248;149.138;2024-02-28T06:06:20;31.50;55.90
39931;DHT22;26635;-35.248;149.138;2024-02-28T06:08:51;31.30;55.90
39931;DHT22;26635;-35.248;149.138;2024-02-28T06:11:21;31.20;56.70
39931;DHT22;26635;-35.248;149.138;2024-02-28T06:13:52;31.10;56.80
39931;DHT22;26635;-35.248;149.138;2024-02-28T06:16:22;31.00;58.20
39931;DHT22;26635;-35.248;149.138;2024-02-28T06:18:52;31.00;58.20
39931;DHT22;26635;-35.248;149.138;2024-02-28T06:21:23;30.90;57.70
39931;DHT22;26635;-35.248;149.138;2024-02-28T06:23:54;30.80;57.40
39931;DHT22;26635;-35.248;149.138;2024-02-28T06:26:25;30.80;58.20
39931;DHT22;26635;-35.248;149.138;2024-02-28T06:28:58;30.70;57.50
39931;DHT22;26635;-35.248;149.138;2024-02-28T06:31:31;30.70;57.80
39931;DHT22;26635;-35.248;149.138;2024-02-28T06:34:02;30.60;57.10
39931;DHT22;26635;-35.248;149.138;2024-02-28T06:36:33;30.50;57.50
39931;DHT22;26635;-35.248;149.138;2024-02-28T06:39:04;30.50;58.80
39931;DHT22;26635;-35.248;149.138;2024-02-28T06:41:35;30.40;57.80
39931;DHT22;26635;-35.248;149.138;2024-02-28T06:44:07;30.40;58.50
39931;DHT22;26635;-35.248;149.138;2024-02-28T06:46:38;30.40;58.60
39931;DHT22;26635;-35.248;149.138;2024-02-28T06:49:09;30.40;57.60
39931;DHT22;26635;-35.248;149.138;2024-02-28T06:51:42;30.30;58.30
39931;DHT22;26635;-35.248;149.138;2024-02-28T06:54:13;30.30;58.40
39931;DHT22;26635;-35.248;149.138;2024-02-28T06:56:43;30.30;59.00
39931;DHT22;26635;-35.248;149.138;2024-02-28T06:59:14;30.30;58.90
39931;DHT22;26635;-35.248;149.138;2024-02-28T07:01:45;30.20;59.90
39931;DHT22;26635;-35.248;149.138;2024-02-28T07:04:15;30.20;59.90
39931;DHT22;26635;-35.248;149.138;2024-02-28T07:06:46;30.20;58.50
39931;DHT22;26635;-35.248;149.138;2024-02-28T07:09:17;30.20;60.10
39931;DHT22;26635;-35.248;149.138;2024-02-28T07:11:47;30.20;59.70
39931;DHT22;26635;-35.248;149.138;2024-02-28T07:14:18;30.20;59.90
39931;DHT22;26635;-35.248;149.138;2024-02-28T07:16:48;30.20;60.00
39931;DHT22;26635;-35.248;149.138;2024-02-28T07:19:19;30.20;60.20
39931;DHT22;26635;-35.248;149.138;2024-02-28T07:21:49;30.20;60.20
39931;DHT22;26635;-35.248;149.138;2024-02-28T07:24:20;30.20;60.30
39931;DHT22;26635;-35.248;149.138;2024-02-28T07:26:50;30.20;59.20
39931;DHT22;26635;-35.248;149.138;2024-02-28T07:29:23;30.20;58.70
39931;DHT22;26635;-35.248;149.138;2024-02-28T07:31:55;30.30;58.50
39931;DHT22;26635;-35.248;149.138;2024-02-28T07:34:25;30.30;57.70
39931;DHT22;26635;-35.248;149.138;2024-02-28T07:36:56;30.30;57.10
39931;DHT22;26635;-35.248;149.138;2024-02-28T07:39:26;30.30;56.60
39931;DHT22;26635;-35.248;149.138;2024-02-28T07:41:57;30.20;56.60
39931;DHT22;26635;-35.248;149.138;2024-02-28T07:44:28;30.20;57.30
39931;DHT22;26635;-35.248;149.138;2024-02-28T07:47:00;30.10;57.60
39931;DHT22;26635;-35.248;149.138;2024-02-28T07:49:30;30.10;58.30
39931;DHT22;26635;-35.248;149.138;2024-02-28T07:52:03;30.00;57.40
39931;DHT22;26635;-35.248;149.138;2024-02-28T07:54:35;29.90;57.40
39931;DHT22;26635;-35.248;149.138;2024-02-28T07:57:06;29.90;57.60
39931;DHT22;26635;-35.248;149.138;2024-02-28T07:59:42;29.90;57.70
39931;DHT22;26635;-35.248;149.138;2024-02-28T08:02:13;29.80;58.50
39931;DHT22;26635;-35.248;149.138;2024-02-28T08:04:44;29.80;60.10
39931;DHT22;26635;-35.248;149.138;2024-02-28T08:07:16;29.80;60.70
39931;DHT22;26635;-35.248;149.138;2024-02-28T08:09:46;29.70;60.90
39931;DHT22;26635;-35.248;149.138;2024-02-28T08:12:17;29.70;61.00
39931;DHT22;26635;-35.248;149.138;2024-02-28T08:14:48;29.70;60.90
39931;DHT22;26635;-35.248;149.138;2024-02-28T08:17:19;29.60;61.50
39931;DHT22;26635;-35.248;149.138;2024-02-28T08:19:50;29.50;61.60
39931;DHT22;26635;-35.248;149.138;2024-02-28T08:22:21;29.50;62.00
39931;DHT22;26635;-35.248;149.138;2024-02-28T08:24:54;29.40;62.40
39931;DHT22;26635;-35.248;149.138;2024-02-28T08:27:26;29.30;63.10
39931;DHT22;26635;-35.248;149.138;2024-02-28T08:29:58;29.10;63.10
39931;DHT22;26635;-35.248;149.138;2024-02-28T08:32:28;29.00;63.00
39931;DHT22;26635;-35.248;149.138;2024-02-28T08:34:58;29.00;63.00
39931;DHT22;26635;-35.248;149.138;2024-02-28T08:37:29;28.80;62.80
39931;DHT22;26635;-35.248;149.138;2024-02-28T08:39:59;28.80;63.40
39931;DHT22;26635;-35.248;149.138;2024-02-28T08:42:30;28.70;64.40
39931;DHT22;26635;-35.248;149.138;2024-02-28T08:45:01;28.60;63.80
39931;DHT22;26635;-35.248;149.138;2024-02-28T08:47:33;28.50;63.80
39931;DHT22;26635;-35.248;149.138;2024-02-28T08:50:05;28.40;64.20
39931;DHT22;26635;-35.248;149.138;2024-02-28T08:52:37;28.30;64.30
39931;DHT22;26635;-35.248;149.138;2024-02-28T08:55:07;28.30;65.00
39931;DHT22;26635;-35.248;149.138;2024-02-28T08:57:38;28.20;65.20
39931;DHT22;26635;-35.248;149.138;2024-02-28T09:00:09;28.10;65.30
39931;DHT22;26635;-35.248;149.138;2024-02-28T09:02:40;28.00;65.90
39931;DHT22;26635;-35.248;149.138;2024-02-28T09:05:11;27.90;66.40
39931;DHT22;26635;-35.248;149.138;2024-02-28T09:07:42;27.80;66.50
39931;DHT22;26635;-35.248;149.138;2024-02-28T09:10:13;27.80;67.80
39931;DHT22;26635;-35.248;149.138;2024-02-28T09:12:44;27.70;67.10
39931;DHT22;26635;-35.248;149.138;2024-02-28T09:15:15;27.60;67.00
39931;DHT22;26635;-35.248;149.138;2024-02-28T09:17:46;27.50;67.80
39931;DHT22;26635;-35.248;149.138;2024-02-28T09:20:17;27.40;68.60
39931;DHT22;26635;-35.248;149.138;2024-02-28T09:22:47;27.30;69.20
39931;DHT22;26635;-35.248;149.138;2024-02-28T09:25:18;27.20;69.60
39931;DHT22;26635;-35.248;149.138;2024-02-28T09:27:54;27.10;69.30
39931;DHT22;26635;-35.248;149.138;2024-02-28T09:30:25;27.10;69.80
39931;DHT22;26635;-35.248;149.138;2024-02-28T09:33:09;27.00;70.60
39931;DHT22;26635;-35.248;149.138;2024-02-28T09:35:41;26.90;71.30
39931;DHT22;26635;-35.248;149.138;2024-02-28T09:38:12;26.80;71.60
39931;DHT22;26635;-35.248;149.138;2024-02-28T09:40:51;26.80;71.90
39931;DHT22;26635;-35.248;149.138;2024-02-28T09:43:28;26.70;72.10
39931;DHT22;26635;-35.248;149.138;2024-02-28T09:46:05;26.60;72.40
39931;DHT22;26635;-35.248;149.138;2024-02-28T09:48:43;26.60;72.70
39931;DHT22;26635;-35.248;149.138;2024-02-28T09:51:18;26.50;74.90
39931;DHT22;26635;-35.248;149.138;2024-02-28T09:53:51;26.40;74.10
39931;DHT22;26635;-35.248;149.138;2024-02-28T09:56:23;26.30;74.30
39931;DHT22;26635;-35.248;149.138;2024-02-28T09:58:55;26.30;75.70
39931;DHT22;26635;-35.248;149.138;2024-02-28T10:01:26;26.20;75.30
39931;DHT22;26635;-35.248;149.138;2024-02-28T10:03:59;26.10;75.70
39931;DHT22;26635;-35.248;149.138;2024-02-28T10:06:32;26.10;75.90
39931;DHT22;26635;-35.248;149.138;2024-02-28T10:09:02;26.00;76.50
39931;DHT22;26635;-35.248;149.138;2024-02-28T10:11:35;25.90;76.30
39931;DHT22;26635;-35.248;149.138;2024-02-28T10:14:05;25.90;77.10
39931;DHT22;26635;-35.248;149.138;2024-02-28T10:16:35;25.80;76.80
39931;DHT22;26635;-35.248;149.138;2024-02-28T10:19:06;25.80;76.90
39931;DHT22;26635;-35.248;149.138;2024-02-28T10:21:36;25.70;77.90
39931;DHT22;26635;-35.248;149.138;2024-02-28T10:24:06;25.70;78.40
39931;DHT22;26635;-35.248;149.138;2024-02-28T10:26:45;25.70;77.90
39931;DHT22;26635;-35.248;149.138;2024-02-28T10:29:25;25.60;78.00
39931;DHT22;26635;-35.248;149.138;2024-02-28T10:31:58;25.50;78.80
39931;DHT22;26635;-35.248;149.138;2024-02-28T10:34:30;25.60;79.10
39931;DHT22;26635;-35.248;149.138;2024-02-28T10:37:02;25.60;80.00
39931;DHT22;26635;-35.248;149.138;2024-02-28T10:39:35;25.70;80.80
39931;DHT22;26635;-35.248;149.138;2024-02-28T10:42:06;25.80;80.90
39931;DHT22;26635;-35.248;149.138;2024-02-28T10:44:38;25.80;81.70
39931;DHT22;26635;-35.248;149.138;2024-02-28T10:47:09;25.90;82.20
39931;DHT22;26635;-35.248;149.138;2024-02-28T10:49:43;26.00;81.50
39931;DHT22;26635;-35.248;149.138;2024-02-28T10:52:15;26.10;82.30
39931;DHT22;26635;-35.248;149.138;2024-02-28T10:54:54;26.10;82.30
39931;DHT22;26635;-35.248;149.138;2024-02-28T10:57:26;26.20;82.80
39931;DHT22;26635;-35.248;149.138;2024-02-28T10:59:57;26.20;82.90
39931;DHT22;26635;-35.248;149.138;2024-02-28T11:02:29;26.20;82.80
39931;DHT22;26635;-35.248;149.138;2024-02-28T11:04:59;26.20;82.50
39931;DHT22;26635;-35.248;149.138;2024-02-28T11:07:31;26.20;82.80
39931;DHT22;26635;-35.248;149.138;2024-02-28T11:10:12;26.30;82.80
39931;DHT22;26635;-35.248;149.138;2024-02-28T11:12:43;26.20;83.00
39931;DHT22;26635;-35.248;149.138;2024-02-28T11:15:25;26.20;83.40
39931;DHT22;26635;-35.248;149.138;2024-02-28T11:18:09;26.10;83.30
39931;DHT22;26635;-35.248;149.138;2024-02-28T11:20:40;26.10;83.70
39931;DHT22;26635;-35.248;149.138;2024-02-28T11:23:12;26.00;84.00
39931;DHT22;26635;-35.248;149.138;2024-02-28T11:25:43;26.00;84.20
39931;DHT22;26635;-35.248;149.138;2024-02-28T11:28:15;26.00;84.50
39931;DHT22;26635;-35.248;149.138;2024-02-28T11:30:46;25.90;84.70
39931;DHT22;26635;-35.248;149.138;2024-02-28T11:33:17;25.90;85.00
39931;DHT22;26635;-35.248;149.138;2024-02-28T11:35:58;25.90;85.50
39931;DHT22;26635;-35.248;149.138;2024-02-28T11:38:28;25.80;85.60
39931;DHT22;26635;-35.248;149.138;2024-02-28T11:41:09;25.80;86.00
39931;DHT22;26635;-35.248;149.138;2024-02-28T11:43:39;25.70;86.20
39931;DHT22;26635;-35.248;149.138;2024-02-28T11:46:19;25.70;86.40
39931;DHT22;26635;-35.248;149.138;2024-02-28T11:48:49;25.70;86.50
39931;DHT22;26635;-35.248;149.138;2024-02-28T11:51:20;25.70;86.60
39931;DHT22;26635;-35.248;149.138;2024-02-28T11:53:50;25.60;86.80
39931;DHT22;26635;-35.248;149.138;2024-02-28T11:56:21;25.60;86.90
39931;DHT22;26635;-35.248;149.138;2024-02-28T11:58:52;25.50;86.80
39931;DHT22;26635;-35.248;149.138;2024-02-28T12:01:36;25.50;87.20
39931;DHT22;26635;-35.248;149.138;2024-02-28T12:04:08;25.40;87.20
39931;DHT22;26635;-35.248;149.138;2024-02-28T12:06:40;25.40;87.50
39931;DHT22;26635;-35.248;149.138;2024-02-28T12:09:12;25.40;87.40
39931;DHT22;26635;-35.248;149.138;2024-02-28T12:11:55;25.30;87.50
39931;DHT22;26635;-35.248;149.138;2024-02-28T12:14:25;25.30;87.50
39931;DHT22;26635;-35.248;149.138;2024-02-28T12:16:57;25.20;87.40
39931;DHT22;26635;-35.248;149.138;2024-02-28T12:19:28;25.20;87.40
39931;DHT22;26635;-35.248;149.138;2024-02-28T12:21:58;25.20;87.50
39931;DHT22;26635;-35.248;149.138;2024-02-28T12:24:30;25.10;87.40
39931;DHT22;26635;-35.248;149.138;2024-02-28T12:27:00;25.20;87.50
39931;DHT22;26635;-35.248;149.138;2024-02-28T12:29:30;25.10;87.40
39931;DHT22;26635;-35.248;149.138;2024-02-28T12:32:01;25.10;87.80
39931;DHT22;26635;-35.248;149.138;2024-02-28T12:34:32;25.00;87.70
39931;DHT22;26635;-35.248;149.138;2024-02-28T12:37:02;25.00;87.60
39931;DHT22;26635;-35.248;149.138;2024-02-28T12:39:34;24.90;87.70
39931;DHT22;26635;-35.248;149.138;2024-02-28T12:42:05;24.90;87.70
39931;DHT22;26635;-35.248;149.138;2024-02-28T12:44:37;24.90;87.60
39931;DHT22;26635;-35.248;149.138;2024-02-28T12:47:08;24.90;87.50
39931;DHT22;26635;-35.248;149.138;2024-02-28T12:49:39;24.90;87.60
39931;DHT22;26635;-35.248;149.138;2024-02-28T12:52:09;24.90;87.80
39931;DHT22;26635;-35.248;149.138;2024-02-28T12:54:40;24.80;87.80
39931;DHT22;26635;-35.248;149.138;2024-02-28T12:57:10;24.80;87.90
39931;DHT22;26635;-35.248;149.138;2024-02-28T12:59:43;24.70;88.00
39931;DHT22;26635;-35.248;149.138;2024-02-28T13:02:17;24.60;88.60
39931;DHT22;26635;-35.248;149.138;2024-02-28T13:04:49;24.60;88.70
39931;DHT22;26635;-35.248;149.138;2024-02-28T13:07:19;24.50;88.90
39931;DHT22;26635;-35.248;149.138;2024-02-28T13:09:52;24.40;89.20
39931;DHT22;26635;-35.248;149.138;2024-02-28T13:12:23;24.40;89.70
39931;DHT22;26635;-35.248;149.138;2024-02-28T13:14:53;24.30;89.70
39931;DHT22;26635;-35.248;149.138;2024-02-28T13:17:24;24.30;89.90
39931;DHT22;26635;-35.248;149.138;2024-02-28T13:19:54;24.20;90.00
39931;DHT22;26635;-35.248;149.138;2024-02-28T13:22:24;24.20;90.10
39931;DHT22;26635;-35.248;149.138;2024-02-28T13:24:55;24.20;90.30
39931;DHT22;26635;-35.248;149.138;2024-02-28T13:27:26;24.20;90.20
39931;DHT22;26635;-35.248;149.138;2024-02-28T13:29:57;24.20;90.40
39931;DHT22;26635;-35.248;149.138;2024-02-28T13:32:27;24.10;90.40
39931;DHT22;26635;-35.248;149.138;2024-02-28T13:34:58;24.10;90.50
39931;DHT22;26635;-35.248;149.138;2024-02-28T13:37:29;24.10;90.50
39931;DHT22;26635;-35.248;149.138;2024-02-28T13:40:01;24.10;90.40
39931;DHT22;26635;-35.248;149.138;2024-02-28T13:42:37;24.10;90.50
39931;DHT22;26635;-35.248;149.138;2024-02-28T13:45:08;24.00;90.40
39931;DHT22;26635;-35.248;149.138;2024-02-28T13:47:40;24.00;90.40
39931;DHT22;26635;-35.248;149.138;2024-02-28T13:50:10;23.90;90.50
39931;DHT22;26635;-35.248;149.138;2024-02-28T13:52:40;23.90;90.60
39931;DHT22;26635;-35.248;149.138;2024-02-28T13:55:11;24.00;90.40
39931;DHT22;26635;-35.248;149.138;2024-02-28T13:57:41;24.00;90.50
39931;DHT22;26635;-35.248;149.138;2024-02-28T14:00:12;24.00;90.30
39931;DHT22;26635;-35.248;149.138;2024-02-28T14:02:43;24.00;90.40
39931;DHT22;26635;-35.248;149.138;2024-02-28T14:05:13;24.00;90.40
39931;DHT22;26635;-35.248;149.138;2024-02-28T14:07:44;24.00;90.40
39931;DHT22;26635;-35.248;149.138;2024-02-28T14:10:15;24.00;90.30
39931;DHT22;26635;-35.248;149.138;2024-02-28T14:12:45;24.00;90.40
39931;DHT22;26635;-35.248;149.138;2024-02-28T14:15:16;24.00;90.40
39931;DHT22;26635;-35.248;149.138;2024-02-28T14:17:46;24.00;90.50
39931;DHT22;26635;-35.248;149.138;2024-02-28T14:20:17;24.00;90.60
39931;DHT22;26635;-35.248;149.138;2024-02-28T14:22:47;24.00;90.60
39931;DHT22;26635;-35.248;149.138;2024-02-28T14:25:18;23.90;90.70
39931;DHT22;26635;-35.248;149.138;2024-02-28T14:27:53;23.90;90.80
39931;DHT22;26635;-35.248;149.138;2024-02-28T14:30:23;23.80;90.90
39931;DHT22;26635;-35.248;149.138;2024-02-28T14:32:54;23.80;91.00
39931;DHT22;26635;-35.248;149.138;2024-02-28T14:35:24;23.80;91.00
39931;DHT22;26635;-35.248;149.138;2024-02-28T14:37:56;23.70;91.00
39931;DHT22;26635;-35.248;149.138;2024-02-28T14:40:26;23.70;91.30
39931;DHT22;26635;-35.248;149.138;2024-02-28T14:42:56;23.70;91.40
39931;DHT22;26635;-35.248;149.138;2024-02-28T14:45:26;23.60;91.30
39931;DHT22;26635;-35.248;149.138;2024-02-28T14:47:58;23.60;91.60
39931;DHT22;26635;-35.248;149.138;2024-02-28T14:50:29;23.50;91.70
39931;DHT22;26635;-35.248;149.138;2024-02-28T14:52:59;23.50;91.60
39931;DHT22;26635;-35.248;149.138;2024-02-28T14:55:29;23.40;91.60
39931;DHT22;26635;-35.248;149.138;2024-02-28T14:58:00;23.40;91.70
39931;DHT22;26635;-35.248;149.138;2024-02-28T15:00:30;23.30;91.80
39931;DHT22;26635;-35.248;149.138;2024-02-28T15:03:01;23.30;91.80
39931;DHT22;26635;-35.248;149.138;2024-02-28T15:05:34;23.20;91.70
39931;DHT22;26635;-35.248;149.138;2024-02-28T15:08:05;23.20;91.90
39931;DHT22;26635;-35.248;149.138;2024-02-28T15:10:38;23.10;92.10
39931;DHT22;26635;-35.248;149.138;2024-02-28T15:13:08;23.10;92.00